sensor_id;sensor_type;location;lat;lon;timestamp;P1;durP1;ratioP1;P2;durP2;ratioP2
21681;SDS011;11002;48.256;10.084;2022-07-29T00:01:01;1.60;;;1.50;;
21681;SDS011;11002;48.256;10.084;2022-07-29T00:03:28;1.40;;;1.30;;
21681;SDS011;11002;48.256;10.084;2022-07-29T00:05:56;1.40;;;1.30;;
21681;SDS011;11002;48.256;10.084;2022-07-29T00:08:23;1.38;;;1.13;;
21681;SDS011;11002;48.256;10.084;2022-07-29T00:10:50;1.20;;;1.10;;
21681;SDS011;11002;48.256;10.084;2022-07-29T00:13:18;1.63;;;1.52;;
21681;SDS011;11002;48.256;10.084;2022-07-29T00:15:46;1.13;;;1.10;;
21681;SDS011;11002;48.256;10.084;2022-07-29T00:18:14;1.52;;;1.40;;
21681;SDS011;11002;48.256;10.084;2022-07-29T00:20:41;2.15;;;1.23;;
21681;SDS011;11002;48.256;10.084;2022-07-29T00:23:08;1.40;;;1.30;;
21681;SDS011;11002;48.256;10.084;2022-07-29T00:25:36;1.13;;;1.02;;
21681;SDS011;11002;48.256;10.084;2022-07-29T00:28:03;1.30;;;1.20;;
21681;SDS011;11002;48.256;10.084;2022-07-29T00:30:31;1.20;;;1.10;;
21681;SDS011;11002;48.256;10.084;2022-07-29T00:33:00;1.30;;;1.20;;
21681;SDS011;11002;48.256;10.084;2022-07-29T00:35:27;1.13;;;1.00;;
21681;SDS011;11002;48.256;10.084;2022-07-29T00:38:09;1.13;;;1.13;;
21681;SDS011;11002;48.256;10.084;2022-07-29T00:40:36;1.30;;;1.20;;
21681;SDS011;11002;48.256;10.084;2022-07-29T00:43:04;1.63;;;1.30;;
21681;SDS011;11002;48.256;10.084;2022-07-29T00:45:31;1.50;;;1.40;;
21681;SDS011;11002;48.256;10.084;2022-07-29T00:48:00;1.40;;;1.30;;
21681;SDS011;11002;48.256;10.084;2022-07-29T00:50:28;1.15;;;1.10;;
21681;SDS011;11002;48.256;10.084;2022-07-29T00:52:56;1.48;;;1.38;;
21681;SDS011;11002;48.256;10.084;2022-07-29T00:55:23;1.38;;;1.20;;
21681;SDS011;11002;48.256;10.084;2022-07-29T00:57:51;1.10;;;1.00;;
21681;SDS011;11002;48.256;10.084;2022-07-29T01:00:22;1.55;;;1.35;;
21681;SDS011;11002;48.256;10.084;2022-07-29T01:02:50;1.55;;;1.27;;
21681;SDS011;11002;48.256;10.084;2022-07-29T01:05:20;1.30;;;1.10;;
21681;SDS011;11002;48.256;10.084;2022-07-29T01:07:50;1.15;;;1.10;;
21681;SDS011;11002;48.256;10.084;2022-07-29T01:10:20;1.23;;;1.15;;
21681;SDS011;11002;48.256;10.084;2022-07-29T01:12:51;1.67;;;1.10;;
21681;SDS011;11002;48.256;10.084;2022-07-29T01:15:20;2.55;;;1.40;;
21681;SDS011;11002;48.256;10.084;2022-07-29T01:17:50;2.70;;;1.40;;
21681;SDS011;11002;48.256;10.084;2022-07-29T01:20:25;1.40;;;1.30;;
21681;SDS011;11002;48.256;10.084;2022-07-29T01:23:08;1.30;;;1.20;;
21681;SDS011;11002;48.256;10.084;2022-07-29T01:25:54;1.52;;;1.42;;
21681;SDS011;11002;48.256;10.084;2022-07-29T01:28:49;1.48;;;1.38;;
21681;SDS011;11002;48.256;10.084;2022-07-29T01:33:55;3.15;;;1.48;;
21681;SDS011;11002;48.256;10.084;2022-07-29T01:36:29;1.40;;;1.30;;
21681;SDS011;11002;48.256;10.084;2022-07-29T01:39:02;2.72;;;1.30;;
21681;SDS011;11002;48.256;10.084;2022-07-29T01:41:34;1.42;;;1.33;;
21681;SDS011;11002;48.256;10.084;2022-07-29T01:44:10;1.25;;;1.13;;
21681;SDS011;11002;48.256;10.084;2022-07-29T01:46:44;1.33;;;1.23;;
21681;SDS011;11002;48.256;10.084;2022-07-29T01:49:20;1.63;;;1.50;;
21681;SDS011;11002;48.256;10.084;2022-07-29T01:51:51;1.55;;;1.35;;
21681;SDS011;11002;48.256;10.084;2022-07-29T01:54:24;3.63;;;1.33;;
21681;SDS011;11002;48.256;10.084;2022-07-29T01:56:57;1.17;;;1.15;;
21681;SDS011;11002;48.256;10.084;2022-07-29T01:59:27;1.20;;;1.10;;
21681;SDS011;11002;48.256;10.084;2022-07-29T02:01:57;1.73;;;1.40;;
21681;SDS011;11002;48.256;10.084;2022-07-29T02:04:26;2.67;;;1.58;;
21681;SDS011;11002;48.256;10.084;2022-07-29T02:06:56;1.58;;;1.48;;
21681;SDS011;11002;48.256;10.084;2022-07-29T02:09:28;1.40;;;1.17;;
21681;SDS011;11002;48.256;10.084;2022-07-29T02:11:56;1.75;;;1.30;;
21681;SDS011;11002;48.256;10.084;2022-07-29T02:14:28;1.52;;;1.40;;
21681;SDS011;11002;48.256;10.084;2022-07-29T02:17:00;1.67;;;1.33;;
21681;SDS011;11002;48.256;10.084;2022-07-29T02:19:29;1.25;;;1.23;;
21681;SDS011;11002;48.256;10.084;2022-07-29T02:21:59;1.85;;;1.50;;
21681;SDS011;11002;48.256;10.084;2022-07-29T02:24:28;1.67;;;1.33;;
21681;SDS011;11002;48.256;10.084;2022-07-29T02:26:57;1.40;;;1.30;;
21681;SDS011;11002;48.256;10.084;2022-07-29T02:29:28;1.50;;;1.25;;
21681;SDS011;11002;48.256;10.084;2022-07-29T02:31:57;1.30;;;1.20;;
21681;SDS011;11002;48.256;10.084;2022-07-29T02:34:27;1.00;;;1.00;;
21681;SDS011;11002;48.256;10.084;2022-07-29T02:36:55;1.52;;;1.23;;
21681;SDS011;11002;48.256;10.084;2022-07-29T02:39:23;1.20;;;1.20;;
21681;SDS011;11002;48.256;10.084;2022-07-29T02:41:54;1.40;;;1.30;;
21681;SDS011;11002;48.256;10.084;2022-07-29T02:44:27;1.40;;;1.30;;
21681;SDS011;11002;48.256;10.084;2022-07-29T02:46:57;1.23;;;1.13;;
21681;SDS011;11002;48.256;10.084;2022-07-29T02:49:31;1.50;;;1.40;;
21681;SDS011;11002;48.256;10.084;2022-07-29T02:52:02;1.73;;;1.60;;
21681;SDS011;11002;48.256;10.084;2022-07-29T02:54:32;1.30;;;1.20;;
21681;SDS011;11002;48.256;10.084;2022-07-29T02:57:06;1.48;;;1.38;;
21681;SDS011;11002;48.256;10.084;2022-07-29T02:59:43;1.45;;;1.33;;
21681;SDS011;11002;48.256;10.084;2022-07-29T03:02:14;1.35;;;1.25;;
21681;SDS011;11002;48.256;10.084;2022-07-29T03:04:43;1.30;;;1.20;;
21681;SDS011;11002;48.256;10.084;2022-07-29T03:07:13;1.33;;;1.23;;
21681;SDS011;11002;48.256;10.084;2022-07-29T03:09:42;1.50;;;1.40;;
21681;SDS011;11002;48.256;10.084;2022-07-29T03:12:10;1.30;;;1.15;;
21681;SDS011;11002;48.256;10.084;2022-07-29T03:14:38;1.60;;;1.20;;
21681;SDS011;11002;48.256;10.084;2022-07-29T03:17:08;1.40;;;1.30;;
21681;SDS011;11002;48.256;10.084;2022-07-29T03:19:36;1.40;;;1.30;;
21681;SDS011;11002;48.256;10.084;2022-07-29T03:22:04;2.38;;;1.33;;
21681;SDS011;11002;48.256;10.084;2022-07-29T03:24:33;1.00;;;1.00;;
21681;SDS011;11002;48.256;10.084;2022-07-29T03:27:02;1.55;;;1.00;;
21681;SDS011;11002;48.256;10.084;2022-07-29T03:29:30;1.50;;;1.40;;
21681;SDS011;11002;48.256;10.084;2022-07-29T03:31:58;1.30;;;1.20;;
21681;SDS011;11002;48.256;10.084;2022-07-29T03:34:27;1.33;;;1.20;;
21681;SDS011;11002;48.256;10.084;2022-07-29T03:36:54;1.30;;;1.10;;
21681;SDS011;11002;48.256;10.084;2022-07-29T03:39:23;1.40;;;1.20;;
21681;SDS011;11002;48.256;10.084;2022-07-29T03:41:55;1.15;;;1.10;;
21681;SDS011;11002;48.256;10.084;2022-07-29T03:44:25;1.45;;;1.35;;
21681;SDS011;11002;48.256;10.084;2022-07-29T03:46:55;1.05;;;0.95;;
21681;SDS011;11002;48.256;10.084;2022-07-29T03:49:26;1.20;;;1.10;;
21681;SDS011;11002;48.256;10.084;2022-07-29T03:51:56;1.10;;;1.00;;
21681;SDS011;11002;48.256;10.084;2022-07-29T03:54:23;1.15;;;1.05;;
21681;SDS011;11002;48.256;10.084;2022-07-29T03:56:51;1.10;;;1.00;;
21681;SDS011;11002;48.256;10.084;2022-07-29T03:59:19;1.20;;;1.10;;
21681;SDS011;11002;48.256;10.084;2022-07-29T04:01:48;1.23;;;1.10;;
21681;SDS011;11002;48.256;10.084;2022-07-29T04:04:16;1.77;;;1.38;;
21681;SDS011;11002;48.256;10.084;2022-07-29T04:06:45;0.90;;;0.90;;
21681;SDS011;11002;48.256;10.084;2022-07-29T04:09:13;1.17;;;1.08;;
21681;SDS011;11002;48.256;10.084;2022-07-29T04:11:41;0.98;;;0.98;;
21681;SDS011;11002;48.256;10.084;2022-07-29T04:14:09;1.30;;;1.20;;
21681;SDS011;11002;48.256;10.084;2022-07-29T04:16:36;1.38;;;1.27;;
21681;SDS011;11002;48.256;10.084;2022-07-29T04:19:03;1.58;;;1.10;;
21681;SDS011;11002;48.256;10.084;2022-07-29T04:21:31;1.27;;;1.10;;
21681;SDS011;11002;48.256;10.084;2022-07-29T04:24:04;1.33;;;1.20;;
21681;SDS011;11002;48.256;10.084;2022-07-29T04:26:32;0.98;;;0.98;;
21681;SDS011;11002;48.256;10.084;2022-07-29T04:29:00;0.95;;;0.95;;
21681;SDS011;11002;48.256;10.084;2022-07-29T04:31:27;1.20;;;1.10;;
21681;SDS011;11002;48.256;10.084;2022-07-29T04:33:55;1.20;;;1.10;;
21681;SDS011;11002;48.256;10.084;2022-07-29T04:36:22;1.15;;;1.05;;
21681;SDS011;11002;48.256;10.084;2022-07-29T04:38:50;1.38;;;1.10;;
21681;SDS011;11002;48.256;10.084;2022-07-29T04:41:19;2.53;;;1.20;;
21681;SDS011;11002;48.256;10.084;2022-07-29T04:43:46;1.27;;;1.17;;
21681;SDS011;11002;48.256;10.084;2022-07-29T04:46:13;1.00;;;1.00;;
21681;SDS011;11002;48.256;10.084;2022-07-29T04:48:41;1.52;;;1.13;;
21681;SDS011;11002;48.256;10.084;2022-07-29T04:51:08;0.93;;;0.93;;
21681;SDS011;11002;48.256;10.084;2022-07-29T04:53:36;0.82;;;0.82;;
21681;SDS011;11002;48.256;10.084;2022-07-29T04:56:03;1.17;;;1.08;;
21681;SDS011;11002;48.256;10.084;2022-07-29T04:58:32;2.40;;;1.08;;
21681;SDS011;11002;48.256;10.084;2022-07-29T05:01:01;1.00;;;1.00;;
21681;SDS011;11002;48.256;10.084;2022-07-29T05:03:28;1.20;;;1.02;;
21681;SDS011;11002;48.256;10.084;2022-07-29T05:05:56;1.27;;;1.10;;
21681;SDS011;11002;48.256;10.084;2022-07-29T05:08:23;1.20;;;1.10;;
21681;SDS011;11002;48.256;10.084;2022-07-29T05:10:51;1.05;;;1.00;;
21681;SDS011;11002;48.256;10.084;2022-07-29T05:13:18;1.20;;;1.10;;
21681;SDS011;11002;48.256;10.084;2022-07-29T05:15:47;1.15;;;1.05;;
21681;SDS011;11002;48.256;10.084;2022-07-29T05:18:14;0.95;;;0.90;;
21681;SDS011;11002;48.256;10.084;2022-07-29T05:20:42;1.33;;;1.17;;
21681;SDS011;11002;48.256;10.084;2022-07-29T05:23:09;1.00;;;1.00;;
21681;SDS011;11002;48.256;10.084;2022-07-29T05:25:38;0.80;;;0.80;;
21681;SDS011;11002;48.256;10.084;2022-07-29T05:28:05;1.00;;;1.00;;
21681;SDS011;11002;48.256;10.084;2022-07-29T05:30:33;0.93;;;0.88;;
21681;SDS011;11002;48.256;10.084;2022-07-29T05:33:01;0.90;;;0.90;;
21681;SDS011;11002;48.256;10.084;2022-07-29T05:35:29;0.90;;;0.90;;
21681;SDS011;11002;48.256;10.084;2022-07-29T05:37:56;0.80;;;0.80;;
21681;SDS011;11002;48.256;10.084;2022-07-29T05:40:24;0.80;;;0.80;;
21681;SDS011;11002;48.256;10.084;2022-07-29T05:42:51;1.15;;;1.10;;
21681;SDS011;11002;48.256;10.084;2022-07-29T05:45:18;0.82;;;0.82;;
21681;SDS011;11002;48.256;10.084;2022-07-29T05:47:46;0.85;;;0.85;;
21681;SDS011;11002;48.256;10.084;2022-07-29T05:50:14;0.82;;;0.82;;
21681;SDS011;11002;48.256;10.084;2022-07-29T05:52:42;1.13;;;1.02;;
21681;SDS011;11002;48.256;10.084;2022-07-29T05:55:09;1.38;;;0.93;;
21681;SDS011;11002;48.256;10.084;2022-07-29T05:57:37;0.80;;;0.80;;
21681;SDS011;11002;48.256;10.084;2022-07-29T06:00:05;1.05;;;1.00;;
21681;SDS011;11002;48.256;10.084;2022-07-29T06:05:06;0.80;;;0.73;;
21681;SDS011;11002;48.256;10.084;2022-07-29T06:07:35;1.20;;;1.10;;
21681;SDS011;11002;48.256;10.084;2022-07-29T06:10:03;1.20;;;1.10;;
21681;SDS011;11002;48.256;10.084;2022-07-29T06:12:31;0.95;;;0.90;;
21681;SDS011;11002;48.256;10.084;2022-07-29T06:14:58;0.98;;;0.90;;
21681;SDS011;11002;48.256;10.084;2022-07-29T06:17:25;0.98;;;0.95;;
21681;SDS011;11002;48.256;10.084;2022-07-29T06:19:53;1.13;;;1.00;;
21681;SDS011;11002;48.256;10.084;2022-07-29T06:22:20;1.15;;;0.90;;
21681;SDS011;11002;48.256;10.084;2022-07-29T06:24:49;0.90;;;0.90;;
21681;SDS011;11002;48.256;10.084;2022-07-29T06:27:16;1.05;;;0.95;;
21681;SDS011;11002;48.256;10.084;2022-07-29T06:29:44;2.17;;;0.82;;
21681;SDS011;11002;48.256;10.084;2022-07-29T06:32:11;0.73;;;0.73;;
21681;SDS011;11002;48.256;10.084;2022-07-29T06:34:38;0.80;;;0.80;;
21681;SDS011;11002;48.256;10.084;2022-07-29T06:37:06;0.90;;;0.90;;
21681;SDS011;11002;48.256;10.084;2022-07-29T06:39:34;0.70;;;0.70;;
21681;SDS011;11002;48.256;10.084;2022-07-29T06:42:03;6.55;;;0.82;;
21681;SDS011;11002;48.256;10.084;2022-07-29T06:44:30;3.00;;;1.00;;
21681;SDS011;11002;48.256;10.084;2022-07-29T06:46:59;4.85;;;1.15;;
21681;SDS011;11002;48.256;10.084;2022-07-29T06:49:26;3.88;;;1.42;;
21681;SDS011;11002;48.256;10.084;2022-07-29T06:51:54;3.38;;;1.10;;
21681;SDS011;11002;48.256;10.084;2022-07-29T06:54:21;3.40;;;1.00;;
21681;SDS011;11002;48.256;10.084;2022-07-29T06:56:49;3.83;;;1.13;;
21681;SDS011;11002;48.256;10.084;2022-07-29T06:59:18;2.63;;;1.15;;
21681;SDS011;11002;48.256;10.084;2022-07-29T07:01:45;0.90;;;0.90;;
21681;SDS011;11002;48.256;10.084;2022-07-29T07:04:12;1.40;;;0.90;;
21681;SDS011;11002;48.256;10.084;2022-07-29T07:06:40;1.33;;;1.10;;
21681;SDS011;11002;48.256;10.084;2022-07-29T07:09:08;1.33;;;0.90;;
21681;SDS011;11002;48.256;10.084;2022-07-29T07:11:35;1.88;;;0.90;;
21681;SDS011;11002;48.256;10.084;2022-07-29T07:14:02;1.20;;;0.90;;
21681;SDS011;11002;48.256;10.084;2022-07-29T07:16:31;2.65;;;0.95;;
21681;SDS011;11002;48.256;10.084;2022-07-29T07:18:59;1.02;;;0.88;;
21681;SDS011;11002;48.256;10.084;2022-07-29T07:21:27;1.10;;;0.73;;
21681;SDS011;11002;48.256;10.084;2022-07-29T07:23:56;0.95;;;0.85;;
21681;SDS011;11002;48.256;10.084;2022-07-29T07:26:23;1.00;;;0.80;;
21681;SDS011;11002;48.256;10.084;2022-07-29T07:28:50;2.35;;;0.80;;
21681;SDS011;11002;48.256;10.084;2022-07-29T07:31:18;2.38;;;1.08;;
21681;SDS011;11002;48.256;10.084;2022-07-29T07:33:47;0.98;;;0.73;;
21681;SDS011;11002;48.256;10.084;2022-07-29T07:36:14;1.20;;;1.10;;
21681;SDS011;11002;48.256;10.084;2022-07-29T07:38:42;1.95;;;0.90;;
21681;SDS011;11002;48.256;10.084;2022-07-29T07:41:09;0.82;;;0.73;;
21681;SDS011;11002;48.256;10.084;2022-07-29T07:43:36;0.75;;;0.75;;
21681;SDS011;11002;48.256;10.084;2022-07-29T07:46:04;0.70;;;0.70;;
21681;SDS011;11002;48.256;10.084;2022-07-29T07:48:31;1.95;;;1.00;;
21681;SDS011;11002;48.256;10.084;2022-07-29T07:51:01;1.05;;;0.75;;
21681;SDS011;11002;48.256;10.084;2022-07-29T07:53:29;0.88;;;0.85;;
21681;SDS011;11002;48.256;10.084;2022-07-29T07:55:56;1.10;;;1.00;;
21681;SDS011;11002;48.256;10.084;2022-07-29T07:58:23;0.80;;;0.80;;
21681;SDS011;11002;48.256;10.084;2022-07-29T08:00:51;0.88;;;0.88;;
21681;SDS011;11002;48.256;10.084;2022-07-29T08:03:18;1.63;;;0.90;;
21681;SDS011;11002;48.256;10.084;2022-07-29T08:05:45;0.70;;;0.70;;
21681;SDS011;11002;48.256;10.084;2022-07-29T08:08:15;1.02;;;0.98;;
21681;SDS011;11002;48.256;10.084;2022-07-29T08:10:42;0.70;;;0.70;;
21681;SDS011;11002;48.256;10.084;2022-07-29T08:13:19;1.05;;;0.77;;
21681;SDS011;11002;48.256;10.084;2022-07-29T08:15:47;1.10;;;0.60;;
21681;SDS011;11002;48.256;10.084;2022-07-29T08:18:22;1.20;;;0.90;;
21681;SDS011;11002;48.256;10.084;2022-07-29T08:20:50;0.70;;;0.70;;
21681;SDS011;11002;48.256;10.084;2022-07-29T08:23:19;1.00;;;0.90;;
21681;SDS011;11002;48.256;10.084;2022-07-29T08:25:46;0.70;;;0.70;;
21681;SDS011;11002;48.256;10.084;2022-07-29T08:28:14;1.38;;;0.70;;
21681;SDS011;11002;48.256;10.084;2022-07-29T08:30:41;2.05;;;0.82;;
21681;SDS011;11002;48.256;10.084;2022-07-29T08:33:09;1.35;;;0.60;;
21681;SDS011;11002;48.256;10.084;2022-07-29T08:35:36;0.70;;;0.70;;
21681;SDS011;11002;48.256;10.084;2022-07-29T08:38:05;0.70;;;0.70;;
21681;SDS011;11002;48.256;10.084;2022-07-29T08:40:34;1.27;;;0.80;;
21681;SDS011;11002;48.256;10.084;2022-07-29T08:43:05;0.77;;;0.77;;
21681;SDS011;11002;48.256;10.084;2022-07-29T08:48:19;0.60;;;0.60;;
21681;SDS011;11002;48.256;10.084;2022-07-29T08:50:47;1.33;;;0.70;;
21681;SDS011;11002;48.256;10.084;2022-07-29T08:53:17;1.50;;;0.73;;
21681;SDS011;11002;48.256;10.084;2022-07-29T08:55:47;0.80;;;0.80;;
21681;SDS011;11002;48.256;10.084;2022-07-29T08:58:16;0.57;;;0.57;;
21681;SDS011;11002;48.256;10.084;2022-07-29T09:00:46;0.70;;;0.70;;
21681;SDS011;11002;48.256;10.084;2022-07-29T09:03:17;0.60;;;0.60;;
21681;SDS011;11002;48.256;10.084;2022-07-29T09:05:46;1.08;;;0.73;;
21681;SDS011;11002;48.256;10.084;2022-07-29T09:08:15;0.75;;;0.60;;
21681;SDS011;11002;48.256;10.084;2022-07-29T09:10:43;0.60;;;0.60;;
21681;SDS011;11002;48.256;10.084;2022-07-29T09:13:12;1.48;;;0.73;;
21681;SDS011;11002;48.256;10.084;2022-07-29T09:15:40;0.98;;;0.82;;
21681;SDS011;11002;48.256;10.084;2022-07-29T09:18:07;0.93;;;0.70;;
21681;SDS011;11002;48.256;10.084;2022-07-29T09:20:34;0.77;;;0.77;;
21681;SDS011;11002;48.256;10.084;2022-07-29T09:23:19;0.60;;;0.60;;
21681;SDS011;11002;48.256;10.084;2022-07-29T09:25:47;0.50;;;0.50;;
21681;SDS011;11002;48.256;10.084;2022-07-29T09:28:16;3.28;;;0.70;;
21681;SDS011;11002;48.256;10.084;2022-07-29T09:30:49;1.05;;;0.80;;
21681;SDS011;11002;48.256;10.084;2022-07-29T09:33:18;2.92;;;0.90;;
21681;SDS011;11002;48.256;10.084;2022-07-29T09:35:57;0.70;;;0.70;;
21681;SDS011;11002;48.256;10.084;2022-07-29T09:38:25;0.70;;;0.70;;
21681;SDS011;11002;48.256;10.084;2022-07-29T09:40:55;0.57;;;0.57;;
21681;SDS011;11002;48.256;10.084;2022-07-29T09:43:24;1.15;;;0.80;;
21681;SDS011;11002;48.256;10.084;2022-07-29T09:45:52;0.75;;;0.70;;
21681;SDS011;11002;48.256;10.084;2022-07-29T09:48:20;1.73;;;0.80;;
21681;SDS011;11002;48.256;10.084;2022-07-29T09:50:48;0.68;;;0.60;;
21681;SDS011;11002;48.256;10.084;2022-07-29T09:53:32;1.60;;;0.65;;
21681;SDS011;11002;48.256;10.084;2022-07-29T09:56:01;0.57;;;0.57;;
21681;SDS011;11002;48.256;10.084;2022-07-29T09:58:30;0.98;;;0.80;;
21681;SDS011;11002;48.256;10.084;2022-07-29T10:00:59;0.60;;;0.60;;
21681;SDS011;11002;48.256;10.084;2022-07-29T10:03:26;0.75;;;0.70;;
21681;SDS011;11002;48.256;10.084;2022-07-29T10:06:06;0.68;;;0.68;;
21681;SDS011;11002;48.256;10.084;2022-07-29T10:08:34;7.22;;;0.82;;
21681;SDS011;11002;48.256;10.084;2022-07-29T10:11:10;0.63;;;0.63;;
21681;SDS011;11002;48.256;10.084;2022-07-29T10:13:40;1.08;;;0.80;;
21681;SDS011;11002;48.256;10.084;2022-07-29T10:16:09;0.75;;;0.70;;
21681;SDS011;11002;48.256;10.084;2022-07-29T10:18:37;2.33;;;0.70;;
21681;SDS011;11002;48.256;10.084;2022-07-29T10:21:06;0.95;;;0.85;;
21681;SDS011;11002;48.256;10.084;2022-07-29T10:23:34;0.80;;;0.77;;
21681;SDS011;11002;48.256;10.084;2022-07-29T10:26:01;0.80;;;0.80;;
21681;SDS011;11002;48.256;10.084;2022-07-29T10:28:29;0.93;;;0.80;;
21681;SDS011;11002;48.256;10.084;2022-07-29T10:31:00;0.70;;;0.70;;
21681;SDS011;11002;48.256;10.084;2022-07-29T10:36:10;0.70;;;0.70;;
21681;SDS011;11002;48.256;10.084;2022-07-29T10:38:51;1.17;;;0.77;;
21681;SDS011;11002;48.256;10.084;2022-07-29T10:41:29;1.48;;;0.50;;
21681;SDS011;11002;48.256;10.084;2022-07-29T10:44:14;0.93;;;0.70;;
21681;SDS011;11002;48.256;10.084;2022-07-29T10:46:45;1.80;;;0.57;;
21681;SDS011;11002;48.256;10.084;2022-07-29T10:49:13;0.82;;;0.60;;
21681;SDS011;11002;48.256;10.084;2022-07-29T10:51:52;1.23;;;0.82;;
21681;SDS011;11002;48.256;10.084;2022-07-29T10:54:36;0.50;;;0.50;;
21681;SDS011;11002;48.256;10.084;2022-07-29T10:57:12;0.82;;;0.80;;
21681;SDS011;11002;48.256;10.084;2022-07-29T10:59:41;0.80;;;0.75;;
21681;SDS011;11002;48.256;10.084;2022-07-29T11:05:09;0.68;;;0.68;;
21681;SDS011;11002;48.256;10.084;2022-07-29T11:07:39;1.38;;;0.70;;
21681;SDS011;11002;48.256;10.084;2022-07-29T11:10:27;1.23;;;0.68;;
21681;SDS011;11002;48.256;10.084;2022-07-29T11:12:54;0.50;;;0.50;;
21681;SDS011;11002;48.256;10.084;2022-07-29T11:15:22;1.15;;;0.70;;
21681;SDS011;11002;48.256;10.084;2022-07-29T11:18:09;0.82;;;0.82;;
21681;SDS011;11002;48.256;10.084;2022-07-29T11:20:38;0.63;;;0.50;;
21681;SDS011;11002;48.256;10.084;2022-07-29T11:23:17;1.40;;;0.77;;
21681;SDS011;11002;48.256;10.084;2022-07-29T11:25:46;0.60;;;0.60;;
21681;SDS011;11002;48.256;10.084;2022-07-29T11:28:49;0.73;;;0.60;;
21681;SDS011;11002;48.256;10.084;2022-07-29T11:31:31;0.90;;;0.82;;
21681;SDS011;11002;48.256;10.084;2022-07-29T11:34:21;0.60;;;0.57;;
21681;SDS011;11002;48.256;10.084;2022-07-29T11:39:47;0.73;;;0.60;;
21681;SDS011;11002;48.256;10.084;2022-07-29T11:42:39;1.58;;;0.70;;
21681;SDS011;11002;48.256;10.084;2022-07-29T11:45:08;0.65;;;0.65;;
21681;SDS011;11002;48.256;10.084;2022-07-29T11:47:39;0.93;;;0.63;;
21681;SDS011;11002;48.256;10.084;2022-07-29T11:52:43;0.68;;;0.68;;
21681;SDS011;11002;48.256;10.084;2022-07-29T11:55:12;0.70;;;0.70;;
21681;SDS011;11002;48.256;10.084;2022-07-29T11:57:46;1.52;;;0.60;;
21681;SDS011;11002;48.256;10.084;2022-07-29T12:00:20;0.93;;;0.70;;
21681;SDS011;11002;48.256;10.084;2022-07-29T12:02:49;0.68;;;0.60;;
21681;SDS011;11002;48.256;10.084;2022-07-29T12:05:19;0.70;;;0.70;;
21681;SDS011;11002;48.256;10.084;2022-07-29T12:07:47;0.65;;;0.63;;
21681;SDS011;11002;48.256;10.084;2022-07-29T12:10:15;0.60;;;0.60;;
21681;SDS011;11002;48.256;10.084;2022-07-29T12:12:42;0.60;;;0.60;;
21681;SDS011;11002;48.256;10.084;2022-07-29T12:15:17;0.60;;;0.60;;
21681;SDS011;11002;48.256;10.084;2022-07-29T12:17:47;0.63;;;0.63;;
21681;SDS011;11002;48.256;10.084;2022-07-29T12:20:22;0.50;;;0.50;;
21681;SDS011;11002;48.256;10.084;2022-07-29T12:22:51;0.77;;;0.40;;
21681;SDS011;11002;48.256;10.084;2022-07-29T12:25:20;0.50;;;0.50;;
21681;SDS011;11002;48.256;10.084;2022-07-29T12:27:57;0.98;;;0.60;;
21681;SDS011;11002;48.256;10.084;2022-07-29T12:30:33;0.60;;;0.60;;
21681;SDS011;11002;48.256;10.084;2022-07-29T12:33:12;0.75;;;0.70;;
21681;SDS011;11002;48.256;10.084;2022-07-29T12:35:44;0.75;;;0.75;;
21681;SDS011;11002;48.256;10.084;2022-07-29T12:38:12;0.50;;;0.50;;
21681;SDS011;11002;48.256;10.084;2022-07-29T12:40:40;0.50;;;0.50;;
21681;SDS011;11002;48.256;10.084;2022-07-29T12:43:09;0.65;;;0.63;;
21681;SDS011;11002;48.256;10.084;2022-07-29T12:45:38;0.50;;;0.50;;
21681;SDS011;11002;48.256;10.084;2022-07-29T12:48:06;0.40;;;0.40;;
21681;SDS011;11002;48.256;10.084;2022-07-29T12:50:35;0.45;;;0.45;;
21681;SDS011;11002;48.256;10.084;2022-07-29T12:53:11;1.10;;;1.00;;
21681;SDS011;11002;48.256;10.084;2022-07-29T12:55:40;0.70;;;0.68;;
21681;SDS011;11002;48.256;10.084;2022-07-29T12:58:08;0.50;;;0.50;;
21681;SDS011;11002;48.256;10.084;2022-07-29T13:00:36;0.60;;;0.60;;
21681;SDS011;11002;48.256;10.084;2022-07-29T13:03:03;0.50;;;0.50;;
21681;SDS011;11002;48.256;10.084;2022-07-29T13:05:41;0.73;;;0.73;;
21681;SDS011;11002;48.256;10.084;2022-07-29T13:08:11;0.60;;;0.60;;
21681;SDS011;11002;48.256;10.084;2022-07-29T13:10:39;1.75;;;0.77;;
21681;SDS011;11002;48.256;10.084;2022-07-29T13:13:07;0.70;;;0.50;;
21681;SDS011;11002;48.256;10.084;2022-07-29T13:15:35;0.70;;;0.43;;
21681;SDS011;11002;48.256;10.084;2022-07-29T13:18:03;0.82;;;0.50;;
21681;SDS011;11002;48.256;10.084;2022-07-29T13:20:31;1.20;;;0.57;;
21681;SDS011;11002;48.256;10.084;2022-07-29T13:22:59;0.63;;;0.50;;
21681;SDS011;11002;48.256;10.084;2022-07-29T13:25:28;1.17;;;0.60;;
21681;SDS011;11002;48.256;10.084;2022-07-29T13:27:57;0.73;;;0.60;;
21681;SDS011;11002;48.256;10.084;2022-07-29T13:30:25;0.80;;;0.63;;
21681;SDS011;11002;48.256;10.084;2022-07-29T13:32:52;0.65;;;0.60;;
21681;SDS011;11002;48.256;10.084;2022-07-29T13:35:20;0.50;;;0.50;;
21681;SDS011;11002;48.256;10.084;2022-07-29T13:37:47;0.70;;;0.70;;
21681;SDS011;11002;48.256;10.084;2022-07-29T13:40:15;0.80;;;0.80;;
21681;SDS011;11002;48.256;10.084;2022-07-29T13:42:43;1.15;;;0.60;;
21681;SDS011;11002;48.256;10.084;2022-07-29T13:45:11;0.60;;;0.55;;
21681;SDS011;11002;48.256;10.084;2022-07-29T13:47:38;0.52;;;0.52;;
21681;SDS011;11002;48.256;10.084;2022-07-29T13:50:06;0.63;;;0.60;;
21681;SDS011;11002;48.256;10.084;2022-07-29T13:52:36;0.70;;;0.60;;
21681;SDS011;11002;48.256;10.084;2022-07-29T13:55:04;0.50;;;0.50;;
21681;SDS011;11002;48.256;10.084;2022-07-29T13:57:32;0.60;;;0.60;;
21681;SDS011;11002;48.256;10.084;2022-07-29T14:00:01;0.52;;;0.50;;
21681;SDS011;11002;48.256;10.084;2022-07-29T14:02:33;0.30;;;0.30;;
21681;SDS011;11002;48.256;10.084;2022-07-29T14:05:01;2.08;;;0.60;;
21681;SDS011;11002;48.256;10.084;2022-07-29T14:07:29;0.50;;;0.50;;
21681;SDS011;11002;48.256;10.084;2022-07-29T14:09:56;0.50;;;0.50;;
21681;SDS011;11002;48.256;10.084;2022-07-29T14:12:23;0.50;;;0.50;;
21681;SDS011;11002;48.256;10.084;2022-07-29T14:14:51;0.50;;;0.50;;
21681;SDS011;11002;48.256;10.084;2022-07-29T14:17:19;0.40;;;0.40;;
21681;SDS011;11002;48.256;10.084;2022-07-29T14:19:47;0.60;;;0.55;;
21681;SDS011;11002;48.256;10.084;2022-07-29T14:22:14;0.50;;;0.50;;
21681;SDS011;11002;48.256;10.084;2022-07-29T14:24:44;0.63;;;0.60;;
21681;SDS011;11002;48.256;10.084;2022-07-29T14:27:11;0.55;;;0.55;;
21681;SDS011;11002;48.256;10.084;2022-07-29T14:29:39;0.82;;;0.60;;
21681;SDS011;11002;48.256;10.084;2022-07-29T14:32:07;0.52;;;0.50;;
21681;SDS011;11002;48.256;10.084;2022-07-29T14:34:36;0.63;;;0.63;;
21681;SDS011;11002;48.256;10.084;2022-07-29T14:37:05;0.55;;;0.55;;
21681;SDS011;11002;48.256;10.084;2022-07-29T14:39:34;0.50;;;0.50;;
21681;SDS011;11002;48.256;10.084;2022-07-29T14:42:02;0.63;;;0.57;;
21681;SDS011;11002;48.256;10.084;2022-07-29T14:44:30;0.60;;;0.50;;
21681;SDS011;11002;48.256;10.084;2022-07-29T14:46:57;0.75;;;0.50;;
21681;SDS011;11002;48.256;10.084;2022-07-29T14:49:25;0.45;;;0.45;;
21681;SDS011;11002;48.256;10.084;2022-07-29T14:51:54;0.60;;;0.60;;
21681;SDS011;11002;48.256;10.084;2022-07-29T14:54:22;0.75;;;0.43;;
21681;SDS011;11002;48.256;10.084;2022-07-29T14:56:49;0.65;;;0.40;;
21681;SDS011;11002;48.256;10.084;2022-07-29T14:59:20;0.70;;;0.70;;
21681;SDS011;11002;48.256;10.084;2022-07-29T15:01:48;0.50;;;0.50;;
21681;SDS011;11002;48.256;10.084;2022-07-29T15:04:16;0.52;;;0.50;;
21681;SDS011;11002;48.256;10.084;2022-07-29T15:06:43;0.50;;;0.50;;